^^
Datos históricos de la estación: Murcia-Puente Tocinos
Diario Informe para Julio 10, 2019 Unidades:  Métrico    Ingés   Ambas
Diario Semanal Mensual Anual
  Máxima: Mínima: Promedio:
Temperatura: 30.7 °C 20.2 °C 24.8 °C
Punto de rocio: 17.5 °C 5.1 °C 11.4 °C
Humedad: 84% 21% 47%
Velocidad viento: 23.3km/h 4.7km/h 11.6km/h
Racha viento: 40.7km/h - -
Viento- - Sur
Presión: 1012.6 hPa 1009.0 hPa -
Precipitación: 0.0 mm    
 
 
Tabla de datos para Julio 10, 2019
Hora Temperatura Punto de rocio Presión Viento Velocidad viento Racha viento Humedad Intensidad lluvia(por hora) Nubes
00:04 22.7 °C 15.6 °C 1012.2 hPa SSO 11.9 km/h 19.3 km/h 64.6% 0.0 mm
00:09 22.4 °C 15.7 °C 1012.1 hPa SSO 10.9 km/h 19.3 km/h 65.7% 0.0 mm
00:14 22.3 °C 15.7 °C 1012.1 hPa SSO 9.5 km/h 19 km/h 66.5% 0.0 mm
00:19 22.2 °C 15.8 °C 1012.1 hPa SO 9.7 km/h 19.3 km/h 67.2% 0.0 mm
00:24 22.1 °C 15.9 °C 1012.0 hPa SO 10 km/h 18.3 km/h 68% 0.0 mm
00:29 22 °C 15.8 °C 1012.0 hPa SO 9.8 km/h 19.3 km/h 68% 0.0 mm
00:34 21.9 °C 15.7 °C 1012.0 hPa OSO 9.5 km/h 16.1 km/h 68% 0.0 mm
00:39 21.9 °C 15.9 °C 1011.9 hPa OSO 8.7 km/h 14 km/h 68.9% 0.0 mm
00:44 21.8 °C 15.8 °C 1011.9 hPa OSO 7.6 km/h 14.8 km/h 69% 0.0 mm
00:49 21.8 °C 15.9 °C 1012.0 hPa SO 7.9 km/h 13 km/h 69.3% 0.0 mm
00:54 21.7 °C 16 °C 1012.0 hPa SO 8.4 km/h 12.9 km/h 70% 0.0 mm
00:59 21.7 °C 15.9 °C 1012.0 hPa SO 7.6 km/h 11.9 km/h 69.7% 0.0 mm
01:04 21.6 °C 15.9 °C 1012.0 hPa SO 6.5 km/h 13.7 km/h 70% 0.0 mm
01:09 21.6 °C 15.9 °C 1011.9 hPa SO 7.2 km/h 14.5 km/h 70% 0.0 mm
01:14 21.6 °C 15.9 °C 1011.9 hPa SO 8.4 km/h 15.6 km/h 70% 0.0 mm
01:19 21.6 °C 15.9 °C 1011.9 hPa SO 7.8 km/h 16.1 km/h 70% 0.0 mm
01:24 21.6 °C 16 °C 1011.7 hPa SSO 6.9 km/h 14.5 km/h 70.4% 0.0 mm
01:29 21.5 °C 16 °C 1011.7 hPa Sur 7.5 km/h 14.8 km/h 71% 0.0 mm
01:34 21.4 °C 16.1 °C 1011.7 hPa SSO 8.4 km/h 18.5 km/h 71.8% 0.0 mm
01:39 21.3 °C 16.2 °C 1011.7 hPa SSO 9 km/h 19.3 km/h 72.6% 0.0 mm
01:44 21.2 °C 16.2 °C 1011.7 hPa SSO 10 km/h 12.9 km/h 73% 0.0 mm
01:49 21.2 °C 16.2 °C 1011.7 hPa SSO 9 km/h 14.8 km/h 73% 0.0 mm
01:54 21.1 °C 16.2 °C 1011.7 hPa SSO 7.6 km/h 18.5 km/h 73.8% 0.0 mm
01:59 21 °C 16.2 °C 1011.7 hPa SSO 8.8 km/h 19.3 km/h 74.3% 0.0 mm
02:04 20.9 °C 16.3 °C 1011.7 hPa SSO 10.3 km/h 17.2 km/h 75% 0.0 mm
02:09 20.8 °C 16.4 °C 1011.6 hPa SSO 10.3 km/h 17.7 km/h 75.9% 0.0 mm
02:14 20.7 °C 16.3 °C 1011.6 hPa SSO 10.3 km/h 18.5 km/h 76% 0.0 mm
02:19 20.7 °C 16.5 °C 1011.6 hPa SSO 10.2 km/h 19.3 km/h 77% 0.0 mm
02:24 20.7 °C 16.5 °C 1011.6 hPa SO 10 km/h 13 km/h 77% 0.0 mm
02:29 20.6 °C 16.4 °C 1011.6 hPa SO 9 km/h 17.2 km/h 77% 0.0 mm
02:34 20.6 °C 16.4 °C 1011.6 hPa SSO 7.6 km/h 17.7 km/h 77% 0.0 mm
02:39 20.6 °C 16.4 °C 1011.5 hPa SO 8.4 km/h 15.6 km/h 77% 0.0 mm
02:44 20.7 °C 16.5 °C 1011.5 hPa SSO 9.5 km/h 16.1 km/h 77% 0.0 mm
02:49 20.7 °C 16.4 °C 1011.5 hPa SO 9.2 km/h 14.5 km/h 76.2% 0.0 mm
02:54 20.8 °C 16.4 °C 1011.3 hPa SO 8.7 km/h 14.5 km/h 76% 0.0 mm
02:59 20.8 °C 16.3 °C 1011.3 hPa SO 8.2 km/h 14.5 km/h 75.7% 0.0 mm
03:04 20.8 °C 16.4 °C 1011.3 hPa SO 7.6 km/h 13.7 km/h 75.9% 0.0 mm
03:09 20.8 °C 16.4 °C 1011.3 hPa SO 8 km/h 14.5 km/h 76% 0.0 mm
03:14 20.8 °C 16.4 °C 1011.3 hPa SO 8.7 km/h 14.8 km/h 76% 0.0 mm
03:19 20.8 °C 16.2 °C 1011.3 hPa SO 8 km/h 14.5 km/h 75% 0.0 mm
03:24 20.8 °C 16.2 °C 1011.3 hPa SSO 6.9 km/h 11.3 km/h 75% 0.0 mm
03:29 20.8 °C 16.2 °C 1011.3 hPa SSO 7.2 km/h 11.3 km/h 74.5% 0.0 mm
03:34 20.9 °C 16.1 °C 1011.3 hPa SSO 7.6 km/h 13 km/h 74% 0.0 mm
03:39 20.9 °C 16.1 °C 1011.2 hPa SSO 7.3 km/h 12.9 km/h 74% 0.0 mm
03:44 20.9 °C 16.1 °C 1011.2 hPa Sur 6.9 km/h 9.7 km/h 74% 0.0 mm
03:49 20.8 °C 16 °C 1011.2 hPa Sur 6.5 km/h 9.7 km/h 74% 0.0 mm
03:54 20.8 °C 16 °C 1011.1 hPa SSO 5.8 km/h 11.9 km/h 74% 0.0 mm
03:59 20.8 °C 16 °C 1011.1 hPa SSO 6.1 km/h 11.3 km/h 74% 0.0 mm
04:04 20.8 °C 16 °C 1011.1 hPa SSO 6.5 km/h 13 km/h 74% 0.0 mm
04:09 20.8 °C 15.9 °C 1011.0 hPa SO 6.7 km/h 12.9 km/h 73.5% 0.0 mm
04:14 20.8 °C 15.7 °C 1011.0 hPa OSO 6.9 km/h 10 km/h 72.3% 0.0 mm
04:19 20.9 °C 15.5 °C 1011.0 hPa SO 6.7 km/h 10 km/h 71.3% 0.0 mm
04:24 20.9 °C 15.5 °C 1011.0 hPa OSO 6.5 km/h 9.7 km/h 71.1% 0.0 mm
04:29 20.9 °C 15.5 °C 1011.0 hPa Oeste 6.2 km/h 11.1 km/h 71.4% 0.0 mm
04:34 20.8 °C 15.7 °C 1011.0 hPa Oeste 5.8 km/h 11.3 km/h 72.6% 0.0 mm
04:39 20.7 °C 15.7 °C 1011.0 hPa Oeste 6 km/h 9.7 km/h 73% 0.0 mm
04:44 20.6 °C 15.6 °C 1011.0 hPa OSO 6.5 km/h 9.7 km/h 73.1% 0.0 mm
04:49 20.6 °C 15.6 °C 1011.0 hPa OSO 6.2 km/h 10 km/h 73% 0.0 mm
04:54 20.5 °C 15 °C 1011.0 hPa OSO 5.8 km/h 9.7 km/h 70.8% 0.0 mm
04:59 20.7 °C 13.8 °C 1011.0 hPa SO 5.3 km/h 16.7 km/h 64.9% 0.0 mm
05:04 21.5 °C 11.8 °C 1011.0 hPa OSO 4.7 km/h 24.1 km/h 54% 0.0 mm
05:09 22.2 °C 11.6 °C 1011.0 hPa SO 6.5 km/h 24.1 km/h 51.1% 0.0 mm
05:14 22.5 °C 11.7 °C 1011.0 hPa SO 9.5 km/h 14.5 km/h 50.4% 0.0 mm
05:19 22.6 °C 11.5 °C 1011.0 hPa SO 8.7 km/h 17.2 km/h 49.4% 0.0 mm
05:24 22.6 °C 12.8 °C 1011.0 hPa Sur 7.6 km/h 17.7 km/h 54.2% 0.0 mm
05:29 22.1 °C 13.1 °C 1011.0 hPa SSE 8.3 km/h 16.1 km/h 56.7% 0.0 mm
05:34 21.8 °C 12.6 °C 1011.0 hPa Sur 9.5 km/h 13.7 km/h 55.6% 0.0 mm
05:39 21.7 °C 12.6 °C 1011.0 hPa Sur 8 km/h 14.5 km/h 56% 0.0 mm
05:44 21.7 °C 12.3 °C 1011.0 hPa Sur 5.8 km/h 11.9 km/h 54.9% 0.0 mm
05:49 21.7 °C 12 °C 1011.0 hPa Sur 6.8 km/h 13.7 km/h 54.3% 0.0 mm
05:54 21.6 °C 11.9 °C 1011.0 hPa Sur 8.4 km/h 14.5 km/h 53.9% 0.0 mm
05:59 21.6 °C 11.5 °C 1011.0 hPa Sur 8 km/h 11.9 km/h 52.7% 0.0 mm
06:04 21.6 °C 11.2 °C 1011.1 hPa SSO 7.6 km/h 11.3 km/h 51.5% 0.0 mm
06:09 21.7 °C 10.9 °C 1011.1 hPa SSO 7.6 km/h 11.1 km/h 50.3% 0.0 mm
06:14 21.7 °C 10.3 °C 1011.1 hPa SSO 7.6 km/h 13.7 km/h 48.5% 0.0 mm
06:19 21.8 °C 9.9 °C 1011.2 hPa SSO 8 km/h 14.5 km/h 46.6% 0.0 mm
06:24 21.9 °C 9.5 °C 1011.2 hPa SSO 8.7 km/h 13.7 km/h 45.1% 0.0 mm
06:29 21.9 °C 9.2 °C 1011.2 hPa SSO 8.6 km/h 14.5 km/h 44.2% 0.0 mm
06:34 22 °C 9 °C 1011.3 hPa Sur 8.4 km/h 12.9 km/h 43.4% 0.0 mm
06:39 22 °C 8.7 °C 1011.3 hPa SSO 8.4 km/h 13.7 km/h 42.5% 0.0 mm
06:44 22.1 °C 8.6 °C 1011.3 hPa SSO 8.4 km/h 14.5 km/h 42% 0.0 mm
06:49 22.1 °C 8.3 °C 1011.4 hPa SSO 8 km/h 15.6 km/h 41.2% 0.0 mm
06:54 22.2 °C 8.1 °C 1011.4 hPa SSO 7.6 km/h 16.1 km/h 40.3% 0.0 mm
06:59 22.2 °C 7.9 °C 1011.4 hPa SSO 8 km/h 14.5 km/h 39.9% 0.0 mm
07:04 22.2 °C 7.6 °C 1011.5 hPa SSO 8.7 km/h 14.8 km/h 39.1% 0.0 mm
07:09 22.3 °C 7.4 °C 1011.5 hPa Sur 8.6 km/h 16.7 km/h 38.3% 0.0 mm
07:14 22.3 °C 7.3 °C 1011.5 hPa SSO 8.4 km/h 16.1 km/h 38% 0.0 mm
07:19 22.4 °C 7.3 °C 1011.5 hPa SSO 7.3 km/h 13 km/h 37.7% 0.0 mm
07:24 22.4 °C 7 °C 1011.5 hPa SSO 5.8 km/h 13.7 km/h 37% 0.0 mm
07:29 22.5 °C 7.1 °C 1011.5 hPa SSO 6.5 km/h 14.5 km/h 37% 0.0 mm
07:34 22.5 °C 7.1 °C 1011.7 hPa Sur 7.6 km/h 11.3 km/h 37% 0.0 mm
07:39 22.5 °C 7.1 °C 1011.7 hPa Sur 7.1 km/h 9.7 km/h 37% 0.0 mm
07:44 22.5 °C 7 °C 1011.7 hPa SSO 6.5 km/h 13 km/h 36.9% 0.0 mm
07:49 22.5 °C 6.8 °C 1011.9 hPa SSO 6.7 km/h 12.9 km/h 36.4% 0.0 mm
07:54 22.5 °C 6.7 °C 1011.9 hPa SO 6.9 km/h 11.1 km/h 36.1% 0.0 mm
07:59 22.5 °C 6.7 °C 1011.9 hPa SO 6.9 km/h 11.9 km/h 36% 0.0 mm
08:04 22.5 °C 6.7 °C 1011.9 hPa SSO 6.9 km/h 13 km/h 36% 0.0 mm
08:09 22.6 °C 6.8 °C 1011.7 hPa SO 7.2 km/h 13 km/h 36% 0.0 mm
08:14 22.6 °C 6.6 °C 1011.7 hPa SO 7.6 km/h 16.7 km/h 35.6% 0.0 mm
08:19 22.7 °C 6.6 °C 1012.0 hPa SO 7.9 km/h 16.1 km/h 35.3% 0.0 mm
08:24 22.8 °C 6.6 °C 1012.0 hPa SO 8.4 km/h 16.1 km/h 35.1% 0.0 mm
08:29 22.9 °C 6.6 °C 1012.0 hPa SO 8.5 km/h 17.2 km/h 35% 0.0 mm
08:34 22.9 °C 6.7 °C 1012.0 hPa SO 8.7 km/h 17.7 km/h 35% 0.0 mm
08:39 23.1 °C 6.8 °C 1012.0 hPa SO 8.6 km/h 12.9 km/h 35% 0.0 mm
08:44 23.2 °C 6.9 °C 1012.0 hPa SO 8.4 km/h 13 km/h 35% 0.0 mm
08:49 23.4 °C 7 °C 1012.2 hPa SO 8.4 km/h 16.4 km/h 35% 0.0 mm
08:54 23.5 °C 7.2 °C 1012.2 hPa SO 8.4 km/h 16.7 km/h 35% 0.0 mm
08:59 23.8 °C 7.3 °C 1012.2 hPa SO 8.5 km/h 16.1 km/h 34.9% 0.0 mm
09:04 23.9 °C 7.3 °C 1012.3 hPa SO 8.7 km/h 14.8 km/h 34.3% 0.0 mm
09:09 24.1 °C 7.3 °C 1012.3 hPa SO 8.7 km/h 17.2 km/h 34% 0.0 mm
09:14 24.3 °C 7.2 °C 1012.3 hPa OSO 8.7 km/h 19 km/h 33.4% 0.0 mm
09:19 24.4 °C 7.1 °C 1012.4 hPa OSO 9.7 km/h 20.9 km/h 32.9% 0.0 mm
09:24 24.7 °C 7.3 °C 1012.4 hPa OSO 11.1 km/h 21.7 km/h 32.9% 0.0 mm
09:29 24.8 °C 6.9 °C 1012.4 hPa Oeste 11.1 km/h 28.6 km/h 31.9% 0.0 mm
09:34 24.8 °C 6.5 °C 1012.5 hPa Oeste 11.1 km/h 29.6 km/h 31% 0.0 mm
09:39 25 °C 6.7 °C 1012.5 hPa Oeste 12.3 km/h 29.8 km/h 31% 0.0 mm
09:44 25.2 °C 6.7 °C 1012.5 hPa ONO 14 km/h 30.6 km/h 30.7% 0.0 mm
09:49 25.3 °C 6.4 °C 1012.6 hPa ONO 14.3 km/h 27.8 km/h 30% 0.0 mm
09:54 25.3 °C 6.5 °C 1012.6 hPa ONO 14.8 km/h 29.8 km/h 30% 0.0 mm
09:59 25.3 °C 6.4 °C 1012.6 hPa Oeste 15.1 km/h 30.6 km/h 30% 0.0 mm
10:04 25.3 °C 6.4 °C 1012.6 hPa Oeste 15.6 km/h 27.4 km/h 30% 0.0 mm
10:09 25.3 °C 6.4 °C 1012.5 hPa ONO 15.3 km/h 25.9 km/h 29.8% 0.0 mm
10:14 25.4 °C 6.6 °C 1012.5 hPa Oeste 14.8 km/h 25.7 km/h 30% 0.0 mm
10:19 25.7 °C 6.5 °C 1012.5 hPa Oeste 14.5 km/h 24.1 km/h 29.4% 0.0 mm
10:24 25.7 °C 6.4 °C 1012.4 hPa OSO 14 km/h 24.1 km/h 29.1% 0.0 mm
10:29 25.9 °C 6.6 °C 1012.4 hPa Oeste 13.9 km/h 22.2 km/h 29.1% 0.0 mm
10:34 26.1 °C 6.7 °C 1012.4 hPa ONO 13.7 km/h 24.1 km/h 29% 0.0 mm
10:39 26.2 °C 6.7 °C 1012.4 hPa OSO 13.7 km/h 24.1 km/h 28.9% 0.0 mm
10:44 26.2 °C 6.3 °C 1012.4 hPa Oeste 13.7 km/h 22.5 km/h 28.3% 0.0 mm
10:49 26.2 °C 6.7 °C 1012.4 hPa OSO 12.1 km/h 22.5 km/h 28.9% 0.0 mm
10:54 26.4 °C 6.7 °C 1012.3 hPa Oeste 10 km/h 19.3 km/h 28.6% 0.0 mm
10:59 26.6 °C 6.6 °C 1012.3 hPa Oeste 10.1 km/h 19.3 km/h 28% 0.0 mm
11:04 26.7 °C 6.6 °C 1012.3 hPa OSO 10.3 km/h 19.3 km/h 27.9% 0.0 mm
11:09 26.8 °C 6.2 °C 1012.2 hPa Oeste 10.3 km/h 20.4 km/h 27% 0.0 mm
11:14 26.9 °C 6.3 °C 1012.2 hPa Oeste 10.3 km/h 24.1 km/h 27% 0.0 mm
11:19 26.9 °C 6.4 °C 1012.2 hPa Oeste 10.6 km/h 24.1 km/h 27% 0.0 mm
11:24 27 °C 6.2 °C 1012.0 hPa Oeste 11.1 km/h 20.9 km/h 26.6% 0.0 mm
11:29 27.1 °C 6.4 °C 1012.0 hPa ONO 10.8 km/h 19.3 km/h 26.9% 0.0 mm
11:34 27.3 °C 6.4 °C 1012.0 hPa Oeste 10.3 km/h 19.3 km/h 26.6% 0.0 mm
11:39 27.5 °C 6.3 °C 1011.9 hPa Oeste 9.6 km/h 16.1 km/h 26% 0.0 mm
11:44 27.6 °C 6.4 °C 1011.9 hPa OSO 8.7 km/h 18.5 km/h 26% 0.0 mm
11:49 27.6 °C 6.4 °C 1011.9 hPa Oeste 9 km/h 19.3 km/h 26% 0.0 mm
11:54 27.7 °C 6.3 °C 1011.8 hPa ONO 9.5 km/h 16.1 km/h 25.7% 0.0 mm
11:59 27.9 °C 6 °C 1011.8 hPa Oeste 8.2 km/h 16.1 km/h 25% 0.0 mm
12:04 28 °C 6.3 °C 1011.8 hPa OSO 6.5 km/h 14.5 km/h 25.3% 0.0 mm
12:09 28.2 °C 6.2 °C 1011.7 hPa ONO 7.4 km/h 17.2 km/h 24.8% 0.0 mm
12:14 28.4 °C 6 °C 1011.7 hPa NO 8.7 km/h 20.1 km/h 24.2% 0.0 mm
12:19 28.5 °C 6.1 °C 1011.7 hPa Oeste 8.7 km/h 20.9 km/h 24.3% 0.0 mm
12:24 28.6 °C 5.9 °C 1011.6 hPa ONO 8.7 km/h 20.4 km/h 23.8% 0.0 mm
12:29 28.7 °C 5.5 °C 1011.6 hPa ONO 9.7 km/h 20.9 km/h 22.9% 0.0 mm
12:34 28.8 °C 5.5 °C 1011.6 hPa ONO 11.1 km/h 20.9 km/h 22.9% 0.0 mm
12:39 29.1 °C 5.3 °C 1011.5 hPa ONO 10.6 km/h 25.9 km/h 22.3% 0.0 mm
12:44 28.9 °C 5.1 °C 1011.5 hPa Oeste 10 km/h 25.9 km/h 22% 0.0 mm
12:49 28.8 °C 5.2 °C 1011.5 hPa ONO 11.6 km/h 25.1 km/h 22.3% 0.0 mm
12:54 28.8 °C 5.6 °C 1011.4 hPa NO 14 km/h 25.7 km/h 23% 0.0 mm
12:59 29 °C 5.2 °C 1011.4 hPa ONO 12.5 km/h 19 km/h 22.2% 0.0 mm
13:04 29 °C 5.7 °C 1011.4 hPa Oeste 10 km/h 20.4 km/h 23% 0.0 mm
13:09 29.3 °C 5.8 °C 1011.2 hPa Oeste 10.1 km/h 20.9 km/h 22.6% 0.0 mm
13:14 29.4 °C 5.5 °C 1011.2 hPa OSO 10.3 km/h 20.9 km/h 22% 0.0 mm
13:19 29.4 °C 5.4 °C 1011.2 hPa SO 10.3 km/h 20.4 km/h 21.9% 0.0 mm
13:24 29.4 °C 5.5 °C 1011.2 hPa SO 10.3 km/h 22.5 km/h 22% 0.0 mm
13:29 29.5 °C 5.6 °C 1011.2 hPa Oeste 11.1 km/h 24.5 km/h 22% 0.0 mm
13:34 29.4 °C 5.4 °C 1011.2 hPa OSO 12.2 km/h 24.1 km/h 22% 0.0 mm
13:39 29.4 °C 5.5 °C 1011.0 hPa OSO 12.2 km/h 22.5 km/h 22% 0.0 mm
13:44 29.4 °C 5.5 °C 1011.0 hPa OSO 12.2 km/h 22.5 km/h 22% 0.0 mm
13:49 29.6 °C 5.6 °C 1011.0 hPa SO 9.4 km/h 14.5 km/h 22% 0.0 mm
13:54 29.9 °C 5.9 °C 1010.9 hPa Oeste 5 km/h 20.1 km/h 22% 0.0 mm
13:59 30.1 °C 5.6 °C 1010.9 hPa OSO 7.2 km/h 25.9 km/h 21.4% 0.0 mm
14:04 29.9 °C 5.3 °C 1010.9 hPa SO 10 km/h 25.7 km/h 21.2% 0.0 mm
14:09 29.8 °C 5.4 °C 1010.8 hPa SSE 9.8 km/h 17.7 km/h 21.5% 0.0 mm
14:14 29.8 °C 5.7 °C 1010.8 hPa Oeste 9.5 km/h 14.8 km/h 21.8% 0.0 mm
14:19 30 °C 5.5 °C 1010.8 hPa SO 8.5 km/h 14.8 km/h 21.4% 0.0 mm
14:24 30.2 °C 5.4 °C 1010.6 hPa Oeste 6.9 km/h 16.7 km/h 21% 0.0 mm
14:29 30.2 °C 5.5 °C 1010.6 hPa SSE 6.5 km/h 16.1 km/h 21% 0.0 mm
14:34 30.3 °C 5.6 °C 1010.6 hPa Oeste 5.8 km/h 11.3 km/h 21% 0.0 mm
14:39 30.6 °C 5.8 °C 1010.3 hPa SO 5.5 km/h 11.9 km/h 21% 0.0 mm
14:44 30.7 °C 5.9 °C 1010.3 hPa ONO 5 km/h 11.3 km/h 21% 0.0 mm
14:49 30.7 °C 5.8 °C 1010.3 hPa NO 5.6 km/h 14.8 km/h 21% 0.0 mm
14:54 30.7 °C 5.9 °C 1010.2 hPa NO 6.5 km/h 14.5 km/h 21% 0.0 mm
14:59 30.6 °C 8.9 °C 1010.2 hPa Este 7 km/h 29.6 km/h 26.3% 0.0 mm
15:04 29.9 °C 11.7 °C 1010.2 hPa ESE 7.6 km/h 29 km/h 32.7% 0.0 mm
15:09 29.7 °C 11.4 °C 1010.0 hPa SE 11.5 km/h 33.3 km/h 32.4% 0.0 mm
15:14 29.7 °C 11.2 °C 1010.0 hPa SE 17.2 km/h 33.8 km/h 32% 0.0 mm
15:19 29.7 °C 11.6 °C 1010.0 hPa SE 17.7 km/h 33.8 km/h 32.9% 0.0 mm
15:24 29.5 °C 11.7 °C 1009.7 hPa ESE 18.4 km/h 36.2 km/h 33.4% 0.0 mm
15:29 29.3 °C 12 °C 1009.7 hPa ESE 19.9 km/h 37 km/h 34.4% 0.0 mm
15:34 29.2 °C 12.4 °C 1009.7 hPa ESE 22.1 km/h 37.8 km/h 35.6% 0.0 mm
15:39 29.2 °C 12.9 °C 1009.6 hPa ESE 21.6 km/h 37 km/h 36.7% 0.0 mm
15:44 29.1 °C 13.1 °C 1009.6 hPa SE 20.9 km/h 38.9 km/h 37.4% 0.0 mm
15:49 29 °C 13.4 °C 1009.6 hPa ESE 21.9 km/h 38.9 km/h 38.4% 0.0 mm
15:54 28.8 °C 13.5 °C 1009.5 hPa ESE 23.3 km/h 38.9 km/h 39% 0.0 mm
15:59 28.7 °C 13.8 °C 1009.5 hPa SE 23.3 km/h 38.6 km/h 40% 0.0 mm
16:04 29.1 °C 14 °C 1009.5 hPa ESE 23.3 km/h 39.6 km/h 39.8% 0.0 mm
16:09 28.9 °C 14 °C 1009.5 hPa ESE 22.8 km/h 40.2 km/h 40% 0.0 mm
16:14 28.9 °C 14 °C 1009.5 hPa ESE 22.1 km/h 40.7 km/h 40% 0.0 mm
16:19 28.8 °C 13.8 °C 1009.6 hPa ESE 22.6 km/h 40.2 km/h 40% 0.0 mm
16:24 28.8 °C 13.8 °C 1009.6 hPa ESE 23.3 km/h 38.6 km/h 40% 0.0 mm
16:29 28.9 °C 13.9 °C 1009.6 hPa ESE 22.4 km/h 37.8 km/h 39.9% 0.0 mm
16:34 29 °C 13.8 °C 1009.6 hPa ESE 20.9 km/h 37 km/h 39.5% 0.0 mm
16:39 29.3 °C 13.9 °C 1009.4 hPa ESE 19.4 km/h 33.8 km/h 39% 0.0 mm
16:44 29.4 °C 13.4 °C 1009.4 hPa ESE 17.2 km/h 39.6 km/h 37.5% 0.0 mm
16:49 29.1 °C 13.1 °C 1009.4 hPa ESE 19.6 km/h 40.7 km/h 37.4% 0.0 mm
16:54 29.2 °C 12.6 °C 1009.3 hPa ESE 23.3 km/h 40.2 km/h 36% 0.0 mm
16:59 29.3 °C 12.2 °C 1009.3 hPa ESE 22.3 km/h 37 km/h 34.9% 0.0 mm
17:04 29.3 °C 12.1 °C 1009.3 hPa ESE 20.9 km/h 37 km/h 34.7% 0.0 mm
17:09 29 °C 11.5 °C 1009.2 hPa ESE 21.9 km/h 39.6 km/h 34% 0.0 mm
17:14 28.9 °C 11.1 °C 1009.2 hPa ESE 23.3 km/h 40.7 km/h 33.3% 0.0 mm
17:19 28.9 °C 11.1 °C 1009.2 hPa ESE 23 km/h 40.2 km/h 33.1% 0.0 mm
17:24 29 °C 10.9 °C 1009.2 hPa ESE 22.5 km/h 37 km/h 32.7% 0.0 mm
17:29 29.2 °C 10.8 °C 1009.2 hPa SE 21.1 km/h 33.5 km/h 32% 0.0 mm
17:34 29 °C 10.6 °C 1009.2 hPa ESE 19 km/h 37.8 km/h 31.8% 0.0 mm
17:39 28.8 °C 10.4 °C 1009.2 hPa ESE 20.2 km/h 37 km/h 32% 0.0 mm
17:44 28.7 °C 10.3 °C 1009.2 hPa SE 22.1 km/h 35.9 km/h 31.8% 0.0 mm
17:49 28.9 °C 10.1 °C 1009.2 hPa SE 20.4 km/h 35.4 km/h 31.2% 0.0 mm
17:54 29 °C 10.2 °C 1009.2 hPa ESE 18 km/h 29.6 km/h 31% 0.0 mm
17:59 29.1 °C 10.2 °C 1009.2 hPa ESE 17.1 km/h 29 km/h 30.8% 0.0 mm
18:04 29.1 °C 10 °C 1009.3 hPa SE 15.6 km/h 26.2 km/h 30.5% 0.0 mm
18:09 29 °C 9.7 °C 1009.3 hPa SE 15.6 km/h 27.8 km/h 30% 0.0 mm
18:14 28.9 °C 9.6 °C 1009.3 hPa SE 15.6 km/h 31.5 km/h 30.1% 0.0 mm
18:19 29 °C 9.6 °C 1009.3 hPa SE 15.8 km/h 32.2 km/h 30% 0.0 mm
18:24 28.9 °C 9.5 °C 1009.2 hPa SE 16.1 km/h 27.8 km/h 29.8% 0.0 mm
18:29 28.9 °C 9.6 °C 1009.2 hPa SE 15.9 km/h 27.4 km/h 30% 0.0 mm
18:34 28.9 °C 9.4 °C 1009.2 hPa SE 15.6 km/h 22.5 km/h 29.7% 0.0 mm
18:39 28.8 °C 9.5 °C 1009.0 hPa SE 14.6 km/h 24.1 km/h 30% 0.0 mm
18:44 28.8 °C 9.5 °C 1009.0 hPa SE 13 km/h 24.1 km/h 30% 0.0 mm
18:49 28.7 °C 9.4 °C 1009.1 hPa ESE 12.3 km/h 20.9 km/h 30.1% 0.0 mm
18:54 28.7 °C 9.5 °C 1009.1 hPa SE 11.1 km/h 19.3 km/h 30.2% 0.0 mm
18:59 28.5 °C 9.3 °C 1009.1 hPa ESE 10.6 km/h 19.3 km/h 30.1% 0.0 mm
19:04 28.4 °C 9.2 °C 1009.1 hPa SE 10 km/h 16.7 km/h 30% 0.0 mm
19:09 28.3 °C 9.1 °C 1009.1 hPa SE 10 km/h 16.7 km/h 30% 0.0 mm
19:14 28.3 °C 9 °C 1009.1 hPa ESE 10 km/h 19 km/h 29.9% 0.0 mm
19:19 28.2 °C 8.8 °C 1009.1 hPa ESE 10 km/h 24.1 km/h 29.5% 0.0 mm
19:24 28.1 °C 8.5 °C 1009.1 hPa ESE 10 km/h 24.1 km/h 29.2% 0.0 mm
19:29 27.9 °C 8.5 °C 1009.1 hPa SE 10.4 km/h 24.1 km/h 29.5% 0.0 mm
19:34 27.8 °C 8.1 °C 1009.3 hPa ESE 11.1 km/h 25.9 km/h 29% 0.0 mm
19:39 27.7 °C 8.1 °C 1009.3 hPa ESE 11.9 km/h 25.7 km/h 29% 0.0 mm
19:44 27.7 °C 8 °C 1009.3 hPa ESE 13 km/h 17.7 km/h 29% 0.0 mm
19:49 27.7 °C 8.1 °C 1009.3 hPa ESE 11.6 km/h 16.1 km/h 29.1% 0.0 mm
19:54 27.7 °C 9.7 °C 1009.3 hPa NE 9.5 km/h 14.5 km/h 32.6% 0.0 mm
19:59 27.3 °C 11.2 °C 1009.3 hPa NE 8.4 km/h 14.8 km/h 36.7% 0.0 mm
20:04 27.1 °C 8.3 °C 1009.3 hPa ENE 6.9 km/h 14.8 km/h 30.6% 0.0 mm
20:09 27.2 °C 10.9 °C 1009.3 hPa NE 7.5 km/h 22 km/h 36.7% 0.0 mm
20:14 26.5 °C 14 °C 1009.3 hPa NE 8.4 km/h 27.8 km/h 46.1% 0.0 mm
20:19 26 °C 15.3 °C 1009.4 hPa NE 11 km/h 27.4 km/h 51.9% 0.0 mm
20:24 25.4 °C 15.7 °C 1009.4 hPa NE 14.8 km/h 24.1 km/h 55% 0.0 mm
20:29 25 °C 15.4 °C 1009.4 hPa NE 14.5 km/h 27.8 km/h 55.2% 0.0 mm
20:34 24.8 °C 15.3 °C 1009.5 hPa NNE 14 km/h 27.4 km/h 55.5% 0.0 mm
20:39 24.6 °C 15.6 °C 1009.5 hPa NE 13.4 km/h 24.1 km/h 57.1% 0.0 mm
20:44 24.3 °C 16 °C 1009.5 hPa NE 12.2 km/h 22.5 km/h 59.8% 0.0 mm
20:49 24 °C 16 °C 1009.5 hPa NE 13 km/h 27.8 km/h 60.8% 0.0 mm
20:54 23.8 °C 15.7 °C 1009.5 hPa NE 14.8 km/h 27.4 km/h 60.4% 0.0 mm
20:59 23.9 °C 16 °C 1009.5 hPa NE 14.2 km/h 22.5 km/h 61.4% 0.0 mm
21:04 23.8 °C 16.3 °C 1009.7 hPa NE 13 km/h 25.1 km/h 63% 0.0 mm
21:09 23.5 °C 16.6 °C 1009.7 hPa NNE 13.8 km/h 27.8 km/h 65% 0.0 mm
21:14 23.3 °C 16.7 °C 1009.7 hPa NNE 15.6 km/h 27.4 km/h 66.3% 0.0 mm
21:19 23.1 °C 16.8 °C 1009.8 hPa NNE 15.1 km/h 27.8 km/h 67.5% 0.0 mm
21:24 22.9 °C 16.7 °C 1009.8 hPa NNE 14 km/h 27.4 km/h 68.2% 0.0 mm
21:29 22.8 °C 16.8 °C 1009.8 hPa NNE 14.3 km/h 27.8 km/h 69.2% 0.0 mm
21:34 22.6 °C 16.9 °C 1010.0 hPa NNE 14.8 km/h 27.8 km/h 70% 0.0 mm
21:39 22.5 °C 16.9 °C 1010.0 hPa NNE 15.2 km/h 26.2 km/h 70.9% 0.0 mm
21:44 22.3 °C 17 °C 1010.0 hPa NNE 16.1 km/h 25.9 km/h 72% 0.0 mm
21:49 22.2 °C 16.9 °C 1010.1 hPa NNE 15.9 km/h 25.7 km/h 72.2% 0.0 mm
21:54 22.1 °C 17.1 °C 1010.1 hPa NE 15.6 km/h 27.8 km/h 73% 0.0 mm
21:59 22 °C 17.1 °C 1010.1 hPa NE 15.3 km/h 27.4 km/h 73.6% 0.0 mm
22:04 21.9 °C 17.1 °C 1010.3 hPa NE 14.8 km/h 30.6 km/h 74% 0.0 mm
22:09 21.8 °C 17.1 °C 1010.3 hPa NE 15 km/h 30.6 km/h 74.6% 0.0 mm
22:14 21.7 °C 17.1 °C 1010.3 hPa NE 15.6 km/h 30.6 km/h 75% 0.0 mm
22:19 21.7 °C 17 °C 1010.4 hPa NE 15.4 km/h 26.2 km/h 75% 0.0 mm
22:24 21.6 °C 17 °C 1010.4 hPa NE 14.8 km/h 25.9 km/h 75.2% 0.0 mm
22:29 21.5 °C 17.1 °C 1010.4 hPa NNE 15.5 km/h 29.6 km/h 76.3% 0.0 mm
22:34 21.4 °C 17.2 °C 1010.4 hPa NE 17.2 km/h 29 km/h 77% 0.0 mm
22:39 21.3 °C 17.1 °C 1010.4 hPa NNE 16.9 km/h 25.7 km/h 77% 0.0 mm
22:44 21.2 °C 17.1 °C 1010.4 hPa NNE 16.1 km/h 27.8 km/h 77.7% 0.0 mm
22:49 21 °C 17.1 °C 1010.7 hPa NNE 16.1 km/h 27.4 km/h 78.2% 0.0 mm
22:54 20.9 °C 17.1 °C 1010.7 hPa NNE 16.1 km/h 25.7 km/h 79% 0.0 mm
22:59 20.8 °C 17.2 °C 1010.7 hPa NNE 16.1 km/h 25.7 km/h 79.6% 0.0 mm
23:04 20.7 °C 17.1 °C 1010.7 hPa NE 16.1 km/h 24.5 km/h 80% 0.0 mm
23:09 20.7 °C 17.3 °C 1010.6 hPa NE 16.2 km/h 29.8 km/h 80.7% 0.0 mm
23:14 20.6 °C 17.2 °C 1010.6 hPa NE 16.4 km/h 30.6 km/h 81% 0.0 mm
23:19 20.6 °C 17.3 °C 1010.7 hPa NE 16.2 km/h 25.7 km/h 81.2% 0.0 mm
23:24 20.5 °C 17.4 °C 1010.7 hPa NNE 15.6 km/h 24.1 km/h 82% 0.0 mm
23:29 20.4 °C 17.2 °C 1010.7 hPa NNE 15 km/h 22.5 km/h 82% 0.0 mm
23:34 20.4 °C 17.3 °C 1010.7 hPa NE 13.7 km/h 24.1 km/h 82.7% 0.0 mm
23:39 20.3 °C 17.3 °C 1010.7 hPa NE 14.3 km/h 24.1 km/h 83% 0.0 mm
23:44 20.3 °C 17.4 °C 1010.7 hPa NE 15.6 km/h 24.1 km/h 83.5% 0.0 mm
23:49 20.3 °C 17.5 °C 1010.8 hPa NE 15.1 km/h 22.5 km/h 84% 0.0 mm
23:54 20.3 °C 17.5 °C 1010.8 hPa NE 14 km/h 22.5 km/h 84% 0.0 mm
23:59 20.2 °C 17.4 °C 1010.8 hPa NE 13.7 km/h 24.1 km/h 84% 0.0 mm
Murcia-Puente Tocinos, España
Compliments of Weather Underground - 3 mb

La estación de MeteoMurcia.com, publica sus datos en los siguientes proyectos:

Weather Underground PWS IMURCIAP2 Meteoclimatic www.awekas.at

W3Counter
Web Analytics